sensor_id;sensor_type;location;lat;lon;timestamp;P1;durP1;ratioP1;P2;durP2;ratioP2
7289;SDS011;3686;52.678;13.252;2022-08-03T00:01:14;6.53;;;3.90;;
7289;SDS011;3686;52.678;13.252;2022-08-03T00:03:41;3.97;;;3.60;;
7289;SDS011;3686;52.678;13.252;2022-08-03T00:06:07;3.57;;;3.27;;
7289;SDS011;3686;52.678;13.252;2022-08-03T00:08:32;3.57;;;3.27;;
7289;SDS011;3686;52.678;13.252;2022-08-03T00:10:58;9.00;;;3.60;;
7289;SDS011;3686;52.678;13.252;2022-08-03T00:13:24;3.83;;;3.03;;
7289;SDS011;3686;52.678;13.252;2022-08-03T00:15:50;5.93;;;3.43;;
7289;SDS011;3686;52.678;13.252;2022-08-03T00:18:16;4.33;;;3.37;;
7289;SDS011;3686;52.678;13.252;2022-08-03T00:20:42;3.67;;;3.30;;
7289;SDS011;3686;52.678;13.252;2022-08-03T00:23:08;4.03;;;3.60;;
7289;SDS011;3686;52.678;13.252;2022-08-03T00:25:34;4.80;;;3.23;;
7289;SDS011;3686;52.678;13.252;2022-08-03T00:28:00;4.23;;;3.70;;
7289;SDS011;3686;52.678;13.252;2022-08-03T00:30:27;7.40;;;3.83;;
7289;SDS011;3686;52.678;13.252;2022-08-03T00:32:53;4.47;;;3.50;;
7289;SDS011;3686;52.678;13.252;2022-08-03T00:35:19;5.53;;;3.67;;
7289;SDS011;3686;52.678;13.252;2022-08-03T00:37:44;5.30;;;3.73;;
7289;SDS011;3686;52.678;13.252;2022-08-03T00:40:11;4.13;;;3.60;;
7289;SDS011;3686;52.678;13.252;2022-08-03T00:42:48;5.97;;;3.73;;
7289;SDS011;3686;52.678;13.252;2022-08-03T00:45:17;9.23;;;4.20;;
7289;SDS011;3686;52.678;13.252;2022-08-03T00:47:44;7.77;;;3.70;;
7289;SDS011;3686;52.678;13.252;2022-08-03T00:50:10;4.67;;;3.90;;
7289;SDS011;3686;52.678;13.252;2022-08-03T00:52:36;3.70;;;3.17;;
7289;SDS011;3686;52.678;13.252;2022-08-03T00:55:02;6.07;;;3.53;;
7289;SDS011;3686;52.678;13.252;2022-08-03T00:57:29;5.83;;;3.80;;
7289;SDS011;3686;52.678;13.252;2022-08-03T00:59:56;7.43;;;3.83;;
7289;SDS011;3686;52.678;13.252;2022-08-03T01:02:24;3.77;;;3.17;;
7289;SDS011;3686;52.678;13.252;2022-08-03T01:04:50;4.50;;;3.50;;
7289;SDS011;3686;52.678;13.252;2022-08-03T01:07:19;4.00;;;3.60;;
7289;SDS011;3686;52.678;13.252;2022-08-03T01:13:14;3.90;;;3.27;;
7289;SDS011;3686;52.678;13.252;2022-08-03T01:21:31;3.60;;;3.30;;
7289;SDS011;3686;52.678;13.252;2022-08-03T01:24:53;4.77;;;4.10;;
7289;SDS011;3686;52.678;13.252;2022-08-03T01:27:06;4.00;;;3.50;;
7289;SDS011;3686;52.678;13.252;2022-08-03T01:32:20;4.23;;;3.30;;
7289;SDS011;3686;52.678;13.252;2022-08-03T01:35:00;4.50;;;3.43;;
7289;SDS011;3686;52.678;13.252;2022-08-03T01:38:13;7.37;;;3.93;;
7289;SDS011;3686;52.678;13.252;2022-08-03T01:40:24;5.03;;;3.23;;
7289;SDS011;3686;52.678;13.252;2022-08-03T01:42:53;12.33;;;2.93;;
7289;SDS011;3686;52.678;13.252;2022-08-03T01:45:21;3.93;;;2.97;;
7289;SDS011;3686;52.678;13.252;2022-08-03T01:47:48;4.10;;;3.33;;
7289;SDS011;3686;52.678;13.252;2022-08-03T01:50:16;6.20;;;3.73;;
7289;SDS011;3686;52.678;13.252;2022-08-03T01:52:46;7.33;;;4.00;;
7289;SDS011;3686;52.678;13.252;2022-08-03T01:55:12;4.73;;;3.40;;
7289;SDS011;3686;52.678;13.252;2022-08-03T01:57:41;3.73;;;3.20;;
7289;SDS011;3686;52.678;13.252;2022-08-03T02:00:08;4.37;;;3.17;;
7289;SDS011;3686;52.678;13.252;2022-08-03T02:02:35;3.30;;;3.00;;
7289;SDS011;3686;52.678;13.252;2022-08-03T02:05:03;5.17;;;3.40;;
7289;SDS011;3686;52.678;13.252;2022-08-03T02:07:32;12.63;;;3.67;;
7289;SDS011;3686;52.678;13.252;2022-08-03T02:09:59;5.30;;;3.40;;
7289;SDS011;3686;52.678;13.252;2022-08-03T02:12:27;5.60;;;3.50;;
7289;SDS011;3686;52.678;13.252;2022-08-03T02:14:55;5.27;;;4.23;;
7289;SDS011;3686;52.678;13.252;2022-08-03T02:17:21;3.90;;;3.50;;
7289;SDS011;3686;52.678;13.252;2022-08-03T02:19:49;4.60;;;3.67;;
7289;SDS011;3686;52.678;13.252;2022-08-03T02:22:15;3.97;;;3.57;;
7289;SDS011;3686;52.678;13.252;2022-08-03T02:24:42;4.13;;;3.53;;
7289;SDS011;3686;52.678;13.252;2022-08-03T02:27:18;4.47;;;3.70;;
7289;SDS011;3686;52.678;13.252;2022-08-03T02:29:54;4.97;;;3.27;;
7289;SDS011;3686;52.678;13.252;2022-08-03T02:32:29;4.23;;;3.63;;
7289;SDS011;3686;52.678;13.252;2022-08-03T02:34:58;3.33;;;2.97;;
7289;SDS011;3686;52.678;13.252;2022-08-03T02:37:27;6.93;;;4.03;;
7289;SDS011;3686;52.678;13.252;2022-08-03T02:39:58;5.63;;;3.20;;
7289;SDS011;3686;52.678;13.252;2022-08-03T02:42:26;3.50;;;3.20;;
7289;SDS011;3686;52.678;13.252;2022-08-03T02:44:54;5.33;;;3.87;;
7289;SDS011;3686;52.678;13.252;2022-08-03T02:47:22;3.60;;;3.30;;
7289;SDS011;3686;52.678;13.252;2022-08-03T02:49:51;4.97;;;3.10;;
7289;SDS011;3686;52.678;13.252;2022-08-03T02:52:20;7.13;;;3.67;;
7289;SDS011;3686;52.678;13.252;2022-08-03T02:54:50;4.23;;;3.57;;
7289;SDS011;3686;52.678;13.252;2022-08-03T02:57:19;4.67;;;3.67;;
7289;SDS011;3686;52.678;13.252;2022-08-03T02:59:45;6.97;;;3.90;;
7289;SDS011;3686;52.678;13.252;2022-08-03T03:02:12;4.93;;;3.60;;
7289;SDS011;3686;52.678;13.252;2022-08-03T03:04:40;3.77;;;3.27;;
7289;SDS011;3686;52.678;13.252;2022-08-03T03:07:07;5.00;;;3.63;;
7289;SDS011;3686;52.678;13.252;2022-08-03T03:09:35;6.07;;;3.27;;
7289;SDS011;3686;52.678;13.252;2022-08-03T03:12:01;4.47;;;3.33;;
7289;SDS011;3686;52.678;13.252;2022-08-03T03:14:28;7.00;;;3.80;;
7289;SDS011;3686;52.678;13.252;2022-08-03T03:16:55;5.97;;;3.47;;
7289;SDS011;3686;52.678;13.252;2022-08-03T03:19:21;6.83;;;3.30;;
7289;SDS011;3686;52.678;13.252;2022-08-03T03:21:48;5.00;;;3.27;;
7289;SDS011;3686;52.678;13.252;2022-08-03T03:24:15;4.50;;;3.87;;
7289;SDS011;3686;52.678;13.252;2022-08-03T03:26:42;4.27;;;3.77;;
7289;SDS011;3686;52.678;13.252;2022-08-03T03:29:08;5.37;;;3.20;;
7289;SDS011;3686;52.678;13.252;2022-08-03T03:31:34;3.50;;;3.27;;
7289;SDS011;3686;52.678;13.252;2022-08-03T03:34:01;4.03;;;3.70;;
7289;SDS011;3686;52.678;13.252;2022-08-03T03:36:27;4.10;;;3.70;;
7289;SDS011;3686;52.678;13.252;2022-08-03T03:38:53;4.50;;;3.77;;
7289;SDS011;3686;52.678;13.252;2022-08-03T03:41:18;5.23;;;3.87;;
7289;SDS011;3686;52.678;13.252;2022-08-03T03:43:44;5.13;;;3.67;;
7289;SDS011;3686;52.678;13.252;2022-08-03T03:46:11;5.13;;;3.27;;
7289;SDS011;3686;52.678;13.252;2022-08-03T03:48:37;4.40;;;3.60;;
7289;SDS011;3686;52.678;13.252;2022-08-03T03:51:04;5.03;;;3.60;;
7289;SDS011;3686;52.678;13.252;2022-08-03T03:53:30;6.97;;;3.73;;
7289;SDS011;3686;52.678;13.252;2022-08-03T03:55:56;4.27;;;3.80;;
7289;SDS011;3686;52.678;13.252;2022-08-03T03:58:22;5.03;;;4.30;;
7289;SDS011;3686;52.678;13.252;2022-08-03T04:00:47;3.57;;;3.30;;
7289;SDS011;3686;52.678;13.252;2022-08-03T04:03:13;6.33;;;4.07;;
7289;SDS011;3686;52.678;13.252;2022-08-03T04:05:39;8.90;;;4.10;;
7289;SDS011;3686;52.678;13.252;2022-08-03T04:08:28;3.97;;;3.57;;
7289;SDS011;3686;52.678;13.252;2022-08-03T04:11:18;10.70;;;4.03;;
7289;SDS011;3686;52.678;13.252;2022-08-03T04:13:52;4.40;;;3.80;;
7289;SDS011;3686;52.678;13.252;2022-08-03T04:16:20;8.97;;;4.20;;
7289;SDS011;3686;52.678;13.252;2022-08-03T04:18:51;4.87;;;4.00;;
7289;SDS011;3686;52.678;13.252;2022-08-03T04:21:21;3.37;;;3.07;;
7289;SDS011;3686;52.678;13.252;2022-08-03T04:23:48;4.13;;;3.50;;
7289;SDS011;3686;52.678;13.252;2022-08-03T04:26:17;10.13;;;4.30;;
7289;SDS011;3686;52.678;13.252;2022-08-03T04:28:45;8.23;;;4.20;;
7289;SDS011;3686;52.678;13.252;2022-08-03T04:31:13;4.03;;;3.50;;
7289;SDS011;3686;52.678;13.252;2022-08-03T04:33:41;7.43;;;4.33;;
7289;SDS011;3686;52.678;13.252;2022-08-03T04:36:08;5.00;;;3.50;;
7289;SDS011;3686;52.678;13.252;2022-08-03T04:38:53;6.73;;;4.60;;
7289;SDS011;3686;52.678;13.252;2022-08-03T04:41:31;5.67;;;4.20;;
7289;SDS011;3686;52.678;13.252;2022-08-03T04:43:59;4.80;;;4.20;;
7289;SDS011;3686;52.678;13.252;2022-08-03T04:46:27;7.13;;;3.53;;
7289;SDS011;3686;52.678;13.252;2022-08-03T04:48:56;5.13;;;3.73;;
7289;SDS011;3686;52.678;13.252;2022-08-03T04:51:22;5.17;;;4.10;;
7289;SDS011;3686;52.678;13.252;2022-08-03T04:53:49;6.63;;;3.77;;
7289;SDS011;3686;52.678;13.252;2022-08-03T04:56:15;5.67;;;4.30;;
7289;SDS011;3686;52.678;13.252;2022-08-03T04:58:41;7.63;;;4.20;;
7289;SDS011;3686;52.678;13.252;2022-08-03T05:01:06;4.80;;;3.67;;
7289;SDS011;3686;52.678;13.252;2022-08-03T05:03:32;7.47;;;3.70;;
7289;SDS011;3686;52.678;13.252;2022-08-03T05:05:58;4.10;;;3.10;;
7289;SDS011;3686;52.678;13.252;2022-08-03T05:08:24;5.90;;;3.73;;
7289;SDS011;3686;52.678;13.252;2022-08-03T05:10:49;6.50;;;3.80;;
7289;SDS011;3686;52.678;13.252;2022-08-03T05:13:15;6.50;;;3.93;;
7289;SDS011;3686;52.678;13.252;2022-08-03T05:15:41;3.73;;;3.43;;
7289;SDS011;3686;52.678;13.252;2022-08-03T05:18:06;3.93;;;3.47;;
7289;SDS011;3686;52.678;13.252;2022-08-03T05:20:32;5.87;;;3.73;;
7289;SDS011;3686;52.678;13.252;2022-08-03T05:22:58;5.47;;;4.30;;
7289;SDS011;3686;52.678;13.252;2022-08-03T05:25:25;4.33;;;3.80;;
7289;SDS011;3686;52.678;13.252;2022-08-03T05:27:51;8.27;;;3.90;;
7289;SDS011;3686;52.678;13.252;2022-08-03T05:30:17;5.13;;;3.50;;
7289;SDS011;3686;52.678;13.252;2022-08-03T05:32:43;4.70;;;3.53;;
7289;SDS011;3686;52.678;13.252;2022-08-03T05:35:09;3.80;;;3.43;;
7289;SDS011;3686;52.678;13.252;2022-08-03T05:37:34;6.60;;;3.40;;
7289;SDS011;3686;52.678;13.252;2022-08-03T05:40:00;9.60;;;3.83;;
7289;SDS011;3686;52.678;13.252;2022-08-03T05:42:26;4.13;;;3.40;;
7289;SDS011;3686;52.678;13.252;2022-08-03T05:44:52;3.40;;;3.10;;
7289;SDS011;3686;52.678;13.252;2022-08-03T05:47:18;4.00;;;3.20;;
7289;SDS011;3686;52.678;13.252;2022-08-03T05:49:43;3.10;;;2.77;;
7289;SDS011;3686;52.678;13.252;2022-08-03T05:52:09;3.13;;;2.83;;
7289;SDS011;3686;52.678;13.252;2022-08-03T05:54:35;2.80;;;2.60;;
7289;SDS011;3686;52.678;13.252;2022-08-03T05:57:00;3.53;;;2.63;;
7289;SDS011;3686;52.678;13.252;2022-08-03T05:59:26;2.70;;;2.53;;
7289;SDS011;3686;52.678;13.252;2022-08-03T06:01:52;2.30;;;2.20;;
7289;SDS011;3686;52.678;13.252;2022-08-03T06:04:17;3.17;;;2.70;;
7289;SDS011;3686;52.678;13.252;2022-08-03T06:06:43;3.10;;;2.13;;
7289;SDS011;3686;52.678;13.252;2022-08-03T06:09:09;4.83;;;2.40;;
7289;SDS011;3686;52.678;13.252;2022-08-03T06:11:35;2.73;;;2.00;;
7289;SDS011;3686;52.678;13.252;2022-08-03T06:14:01;3.00;;;2.20;;
7289;SDS011;3686;52.678;13.252;2022-08-03T06:16:27;2.60;;;1.93;;
7289;SDS011;3686;52.678;13.252;2022-08-03T06:18:53;1.70;;;1.60;;
7289;SDS011;3686;52.678;13.252;2022-08-03T06:21:19;3.00;;;1.77;;
7289;SDS011;3686;52.678;13.252;2022-08-03T06:23:44;4.00;;;1.97;;
7289;SDS011;3686;52.678;13.252;2022-08-03T06:26:11;3.20;;;2.20;;
7289;SDS011;3686;52.678;13.252;2022-08-03T06:28:37;1.67;;;1.57;;
7289;SDS011;3686;52.678;13.252;2022-08-03T06:31:03;1.37;;;1.27;;
7289;SDS011;3686;52.678;13.252;2022-08-03T06:33:29;2.20;;;1.70;;
7289;SDS011;3686;52.678;13.252;2022-08-03T06:35:55;5.23;;;1.60;;
7289;SDS011;3686;52.678;13.252;2022-08-03T06:38:20;2.60;;;1.40;;
7289;SDS011;3686;52.678;13.252;2022-08-03T06:40:46;2.63;;;1.60;;
7289;SDS011;3686;52.678;13.252;2022-08-03T06:43:12;1.80;;;1.70;;
7289;SDS011;3686;52.678;13.252;2022-08-03T06:45:39;2.13;;;1.60;;
7289;SDS011;3686;52.678;13.252;2022-08-03T06:48:06;1.80;;;1.70;;
7289;SDS011;3686;52.678;13.252;2022-08-03T06:50:36;1.97;;;1.60;;
7289;SDS011;3686;52.678;13.252;2022-08-03T06:53:03;1.10;;;1.00;;
7289;SDS011;3686;52.678;13.252;2022-08-03T06:55:29;1.77;;;1.43;;
7289;SDS011;3686;52.678;13.252;2022-08-03T06:57:56;1.53;;;1.17;;
7289;SDS011;3686;52.678;13.252;2022-08-03T07:00:22;4.90;;;1.30;;
7289;SDS011;3686;52.678;13.252;2022-08-03T07:02:47;1.83;;;1.73;;
7289;SDS011;3686;52.678;13.252;2022-08-03T07:05:13;2.40;;;1.50;;
7289;SDS011;3686;52.678;13.252;2022-08-03T07:07:39;2.33;;;1.40;;
7289;SDS011;3686;52.678;13.252;2022-08-03T07:10:06;5.77;;;1.60;;
7289;SDS011;3686;52.678;13.252;2022-08-03T07:12:33;1.20;;;1.13;;
7289;SDS011;3686;52.678;13.252;2022-08-03T07:14:59;1.50;;;1.40;;
7289;SDS011;3686;52.678;13.252;2022-08-03T07:17:26;2.40;;;1.60;;
7289;SDS011;3686;52.678;13.252;2022-08-03T07:19:53;2.23;;;1.50;;
7289;SDS011;3686;52.678;13.252;2022-08-03T07:22:19;2.07;;;1.37;;
7289;SDS011;3686;52.678;13.252;2022-08-03T07:24:44;2.20;;;1.40;;
7289;SDS011;3686;52.678;13.252;2022-08-03T07:27:11;2.17;;;1.60;;
7289;SDS011;3686;52.678;13.252;2022-08-03T07:29:37;1.40;;;1.30;;
7289;SDS011;3686;52.678;13.252;2022-08-03T07:32:03;2.70;;;1.40;;
7289;SDS011;3686;52.678;13.252;2022-08-03T07:34:29;1.43;;;1.20;;
7289;SDS011;3686;52.678;13.252;2022-08-03T07:36:55;2.63;;;1.57;;
7289;SDS011;3686;52.678;13.252;2022-08-03T07:39:21;1.43;;;1.33;;
7289;SDS011;3686;52.678;13.252;2022-08-03T07:41:47;3.47;;;1.80;;
7289;SDS011;3686;52.678;13.252;2022-08-03T07:44:15;1.67;;;1.27;;
7289;SDS011;3686;52.678;13.252;2022-08-03T07:46:44;1.50;;;1.40;;
7289;SDS011;3686;52.678;13.252;2022-08-03T07:49:10;1.50;;;1.40;;
7289;SDS011;3686;52.678;13.252;2022-08-03T07:51:36;1.50;;;1.40;;
7289;SDS011;3686;52.678;13.252;2022-08-03T07:54:01;1.70;;;1.60;;
7289;SDS011;3686;52.678;13.252;2022-08-03T07:56:28;2.87;;;1.30;;
7289;SDS011;3686;52.678;13.252;2022-08-03T07:58:53;1.40;;;1.30;;
7289;SDS011;3686;52.678;13.252;2022-08-03T08:01:20;2.03;;;1.40;;
7289;SDS011;3686;52.678;13.252;2022-08-03T08:03:46;1.63;;;1.50;;
7289;SDS011;3686;52.678;13.252;2022-08-03T08:06:12;1.30;;;1.10;;
7289;SDS011;3686;52.678;13.252;2022-08-03T08:08:38;0.97;;;0.97;;
7289;SDS011;3686;52.678;13.252;2022-08-03T08:11:04;1.80;;;1.40;;
7289;SDS011;3686;52.678;13.252;2022-08-03T08:13:30;2.20;;;1.40;;
7289;SDS011;3686;52.678;13.252;2022-08-03T08:15:56;1.50;;;1.40;;
7289;SDS011;3686;52.678;13.252;2022-08-03T08:18:22;1.27;;;1.17;;
7289;SDS011;3686;52.678;13.252;2022-08-03T08:20:48;1.23;;;1.10;;
7289;SDS011;3686;52.678;13.252;2022-08-03T08:23:14;2.70;;;1.67;;
7289;SDS011;3686;52.678;13.252;2022-08-03T08:25:41;1.47;;;1.37;;
7289;SDS011;3686;52.678;13.252;2022-08-03T08:28:07;1.53;;;1.33;;
7289;SDS011;3686;52.678;13.252;2022-08-03T08:30:33;1.63;;;1.27;;
7289;SDS011;3686;52.678;13.252;2022-08-03T08:32:58;3.03;;;1.60;;
7289;SDS011;3686;52.678;13.252;2022-08-03T08:35:24;1.17;;;1.10;;
7289;SDS011;3686;52.678;13.252;2022-08-03T08:37:50;1.50;;;1.40;;
7289;SDS011;3686;52.678;13.252;2022-08-03T08:40:16;1.70;;;1.33;;
7289;SDS011;3686;52.678;13.252;2022-08-03T08:42:45;1.03;;;1.03;;
7289;SDS011;3686;52.678;13.252;2022-08-03T08:45:11;1.30;;;1.20;;
7289;SDS011;3686;52.678;13.252;2022-08-03T08:47:39;1.40;;;1.30;;
7289;SDS011;3686;52.678;13.252;2022-08-03T08:50:09;1.47;;;1.37;;
7289;SDS011;3686;52.678;13.252;2022-08-03T08:52:35;1.50;;;1.30;;
7289;SDS011;3686;52.678;13.252;2022-08-03T08:55:06;1.30;;;1.20;;
7289;SDS011;3686;52.678;13.252;2022-08-03T08:57:46;1.50;;;1.40;;
7289;SDS011;3686;52.678;13.252;2022-08-03T09:00:20;1.60;;;1.50;;
7289;SDS011;3686;52.678;13.252;2022-08-03T09:02:45;1.23;;;1.13;;
7289;SDS011;3686;52.678;13.252;2022-08-03T09:05:18;2.30;;;1.53;;
7289;SDS011;3686;52.678;13.252;2022-08-03T09:07:45;1.73;;;1.13;;
7289;SDS011;3686;52.678;13.252;2022-08-03T09:10:12;2.50;;;1.20;;
7289;SDS011;3686;52.678;13.252;2022-08-03T09:12:43;1.43;;;1.33;;
7289;SDS011;3686;52.678;13.252;2022-08-03T09:15:20;1.57;;;1.47;;
7289;SDS011;3686;52.678;13.252;2022-08-03T09:17:51;1.40;;;1.30;;
7289;SDS011;3686;52.678;13.252;2022-08-03T09:20:18;2.03;;;1.73;;
7289;SDS011;3686;52.678;13.252;2022-08-03T09:23:02;1.70;;;1.60;;
7289;SDS011;3686;52.678;13.252;2022-08-03T09:25:41;1.30;;;1.20;;
7289;SDS011;3686;52.678;13.252;2022-08-03T09:28:08;1.03;;;1.03;;
7289;SDS011;3686;52.678;13.252;2022-08-03T09:30:36;1.17;;;1.13;;
7289;SDS011;3686;52.678;13.252;2022-08-03T09:33:21;1.00;;;1.00;;
7289;SDS011;3686;52.678;13.252;2022-08-03T09:35:47;1.50;;;1.40;;
7289;SDS011;3686;52.678;13.252;2022-08-03T09:38:14;1.60;;;1.13;;
7289;SDS011;3686;52.678;13.252;2022-08-03T09:40:41;1.53;;;1.43;;
7289;SDS011;3686;52.678;13.252;2022-08-03T09:43:07;1.43;;;1.33;;
7289;SDS011;3686;52.678;13.252;2022-08-03T09:45:34;1.53;;;1.43;;
7289;SDS011;3686;52.678;13.252;2022-08-03T09:50:52;1.43;;;1.33;;
7289;SDS011;3686;52.678;13.252;2022-08-03T09:53:25;1.20;;;1.10;;
7289;SDS011;3686;52.678;13.252;2022-08-03T09:55:55;2.10;;;1.20;;
7289;SDS011;3686;52.678;13.252;2022-08-03T09:58:25;1.70;;;1.60;;
7289;SDS011;3686;52.678;13.252;2022-08-03T10:03:22;1.77;;;1.37;;
7289;SDS011;3686;52.678;13.252;2022-08-03T10:05:48;1.30;;;1.20;;
7289;SDS011;3686;52.678;13.252;2022-08-03T10:08:14;1.30;;;1.20;;
7289;SDS011;3686;52.678;13.252;2022-08-03T10:10:42;3.10;;;1.23;;
7289;SDS011;3686;52.678;13.252;2022-08-03T10:13:10;1.50;;;1.40;;
7289;SDS011;3686;52.678;13.252;2022-08-03T10:15:40;1.67;;;1.33;;
7289;SDS011;3686;52.678;13.252;2022-08-03T10:18:06;1.23;;;1.13;;
7289;SDS011;3686;52.678;13.252;2022-08-03T10:20:36;2.00;;;1.80;;
7289;SDS011;3686;52.678;13.252;2022-08-03T10:23:07;1.30;;;1.20;;
7289;SDS011;3686;52.678;13.252;2022-08-03T10:25:34;1.30;;;1.20;;
7289;SDS011;3686;52.678;13.252;2022-08-03T10:28:03;2.00;;;1.00;;
7289;SDS011;3686;52.678;13.252;2022-08-03T10:30:30;1.73;;;1.27;;
7289;SDS011;3686;52.678;13.252;2022-08-03T10:35:46;1.47;;;1.37;;
7289;SDS011;3686;52.678;13.252;2022-08-03T10:38:17;1.43;;;1.10;;
7289;SDS011;3686;52.678;13.252;2022-08-03T10:40:45;3.03;;;1.40;;
7289;SDS011;3686;52.678;13.252;2022-08-03T10:43:17;1.73;;;1.10;;
7289;SDS011;3686;52.678;13.252;2022-08-03T10:45:48;1.90;;;1.50;;
7289;SDS011;3686;52.678;13.252;2022-08-03T10:48:15;0.80;;;0.80;;
7289;SDS011;3686;52.678;13.252;2022-08-03T10:50:42;1.40;;;1.23;;
7289;SDS011;3686;52.678;13.252;2022-08-03T10:53:08;1.10;;;1.10;;
7289;SDS011;3686;52.678;13.252;2022-08-03T10:55:41;3.17;;;1.10;;
7289;SDS011;3686;52.678;13.252;2022-08-03T11:01:00;1.10;;;1.10;;
7289;SDS011;3686;52.678;13.252;2022-08-03T11:03:26;1.30;;;1.20;;
7289;SDS011;3686;52.678;13.252;2022-08-03T11:05:52;3.63;;;1.20;;
7289;SDS011;3686;52.678;13.252;2022-08-03T11:08:21;1.73;;;1.40;;
7289;SDS011;3686;52.678;13.252;2022-08-03T11:11:01;1.40;;;1.30;;
7289;SDS011;3686;52.678;13.252;2022-08-03T11:14:05;1.87;;;1.27;;
7289;SDS011;3686;52.678;13.252;2022-08-03T11:16:36;1.13;;;1.10;;
7289;SDS011;3686;52.678;13.252;2022-08-03T11:19:06;2.67;;;1.17;;
7289;SDS011;3686;52.678;13.252;2022-08-03T11:37:36;0.97;;;0.90;;
7289;SDS011;3686;52.678;13.252;2022-08-03T11:45:57;0.80;;;0.70;;
7289;SDS011;3686;52.678;13.252;2022-08-03T11:48:36;0.87;;;0.87;;
7289;SDS011;3686;52.678;13.252;2022-08-03T11:51:04;0.90;;;0.90;;
7289;SDS011;3686;52.678;13.252;2022-08-03T11:53:31;0.90;;;0.90;;
7289;SDS011;3686;52.678;13.252;2022-08-03T11:55:58;0.80;;;0.80;;
7289;SDS011;3686;52.678;13.252;2022-08-03T11:58:25;1.20;;;1.10;;
7289;SDS011;3686;52.678;13.252;2022-08-03T12:00:51;0.90;;;0.80;;
7289;SDS011;3686;52.678;13.252;2022-08-03T12:03:30;1.87;;;0.80;;
7289;SDS011;3686;52.678;13.252;2022-08-03T12:05:57;0.83;;;0.83;;
7289;SDS011;3686;52.678;13.252;2022-08-03T12:10:51;0.97;;;0.93;;
7289;SDS011;3686;52.678;13.252;2022-08-03T12:13:18;0.70;;;0.70;;
7289;SDS011;3686;52.678;13.252;2022-08-03T12:15:49;1.10;;;1.00;;
7289;SDS011;3686;52.678;13.252;2022-08-03T12:18:19;5.90;;;0.90;;
7289;SDS011;3686;52.678;13.252;2022-08-03T12:20:46;0.73;;;0.73;;
7289;SDS011;3686;52.678;13.252;2022-08-03T12:23:14;1.00;;;1.00;;
7289;SDS011;3686;52.678;13.252;2022-08-03T12:25:41;1.13;;;1.13;;
7289;SDS011;3686;52.678;13.252;2022-08-03T12:28:12;1.00;;;1.00;;
7289;SDS011;3686;52.678;13.252;2022-08-03T12:30:48;0.90;;;0.90;;
7289;SDS011;3686;52.678;13.252;2022-08-03T12:35:50;1.33;;;0.90;;
7289;SDS011;3686;52.678;13.252;2022-08-03T12:38:33;1.17;;;1.00;;
7289;SDS011;3686;52.678;13.252;2022-08-03T12:41:03;1.00;;;0.90;;
7289;SDS011;3686;52.678;13.252;2022-08-03T12:43:30;0.80;;;0.80;;
7289;SDS011;3686;52.678;13.252;2022-08-03T12:46:06;1.13;;;0.83;;
7289;SDS011;3686;52.678;13.252;2022-08-03T12:48:32;0.80;;;0.80;;
7289;SDS011;3686;52.678;13.252;2022-08-03T12:51:08;1.00;;;0.80;;
7289;SDS011;3686;52.678;13.252;2022-08-03T12:53:35;1.10;;;1.00;;
7289;SDS011;3686;52.678;13.252;2022-08-03T12:56:01;0.97;;;0.97;;
7289;SDS011;3686;52.678;13.252;2022-08-03T12:58:32;1.30;;;1.07;;
7289;SDS011;3686;52.678;13.252;2022-08-03T13:00:59;1.57;;;1.10;;
7289;SDS011;3686;52.678;13.252;2022-08-03T13:03:25;1.00;;;1.00;;
7289;SDS011;3686;52.678;13.252;2022-08-03T13:05:51;0.90;;;0.90;;
7289;SDS011;3686;52.678;13.252;2022-08-03T13:08:21;0.93;;;0.93;;
7289;SDS011;3686;52.678;13.252;2022-08-03T13:10:48;2.47;;;0.90;;
7289;SDS011;3686;52.678;13.252;2022-08-03T13:13:14;2.60;;;1.23;;
7289;SDS011;3686;52.678;13.252;2022-08-03T13:15:40;1.00;;;1.00;;
7289;SDS011;3686;52.678;13.252;2022-08-03T13:18:06;0.90;;;0.87;;
7289;SDS011;3686;52.678;13.252;2022-08-03T13:20:33;1.57;;;1.07;;
7289;SDS011;3686;52.678;13.252;2022-08-03T13:22:59;1.07;;;1.07;;
7289;SDS011;3686;52.678;13.252;2022-08-03T13:25:25;2.37;;;1.20;;
7289;SDS011;3686;52.678;13.252;2022-08-03T13:27:51;1.00;;;1.00;;
7289;SDS011;3686;52.678;13.252;2022-08-03T13:30:17;1.33;;;1.23;;
7289;SDS011;3686;52.678;13.252;2022-08-03T13:32:43;1.10;;;1.10;;
7289;SDS011;3686;52.678;13.252;2022-08-03T13:35:09;1.47;;;1.37;;
7289;SDS011;3686;52.678;13.252;2022-08-03T13:37:35;4.60;;;1.20;;
7289;SDS011;3686;52.678;13.252;2022-08-03T13:40:03;1.00;;;1.00;;
7289;SDS011;3686;52.678;13.252;2022-08-03T13:42:30;1.00;;;1.00;;
7289;SDS011;3686;52.678;13.252;2022-08-03T13:44:57;2.30;;;1.10;;
7289;SDS011;3686;52.678;13.252;2022-08-03T13:47:24;1.37;;;0.90;;
7289;SDS011;3686;52.678;13.252;2022-08-03T13:49:51;1.87;;;1.10;;
7289;SDS011;3686;52.678;13.252;2022-08-03T13:52:17;1.20;;;1.10;;
7289;SDS011;3686;52.678;13.252;2022-08-03T13:54:43;1.23;;;1.23;;
7289;SDS011;3686;52.678;13.252;2022-08-03T13:57:09;1.23;;;1.20;;
7289;SDS011;3686;52.678;13.252;2022-08-03T13:59:35;1.00;;;0.90;;
7289;SDS011;3686;52.678;13.252;2022-08-03T14:02:01;1.10;;;1.00;;
7289;SDS011;3686;52.678;13.252;2022-08-03T14:04:27;1.27;;;1.20;;
7289;SDS011;3686;52.678;13.252;2022-08-03T14:06:53;1.13;;;1.13;;
7289;SDS011;3686;52.678;13.252;2022-08-03T14:09:19;1.00;;;0.90;;
7289;SDS011;3686;52.678;13.252;2022-08-03T14:11:44;1.43;;;1.33;;
7289;SDS011;3686;52.678;13.252;2022-08-03T14:14:10;1.07;;;1.07;;
7289;SDS011;3686;52.678;13.252;2022-08-03T14:16:36;2.77;;;0.93;;
7289;SDS011;3686;52.678;13.252;2022-08-03T14:19:02;1.37;;;1.13;;
7289;SDS011;3686;52.678;13.252;2022-08-03T14:21:28;1.10;;;1.07;;
7289;SDS011;3686;52.678;13.252;2022-08-03T14:23:54;1.30;;;1.00;;
7289;SDS011;3686;52.678;13.252;2022-08-03T14:26:21;1.33;;;1.23;;
7289;SDS011;3686;52.678;13.252;2022-08-03T14:28:46;2.10;;;1.00;;
7289;SDS011;3686;52.678;13.252;2022-08-03T14:31:12;1.10;;;1.10;;
7289;SDS011;3686;52.678;13.252;2022-08-03T14:33:38;1.00;;;1.00;;
7289;SDS011;3686;52.678;13.252;2022-08-03T14:36:04;1.20;;;1.10;;
7289;SDS011;3686;52.678;13.252;2022-08-03T14:38:30;1.20;;;1.20;;
7289;SDS011;3686;52.678;13.252;2022-08-03T14:40:55;1.23;;;1.10;;
7289;SDS011;3686;52.678;13.252;2022-08-03T14:43:21;1.50;;;1.20;;
7289;SDS011;3686;52.678;13.252;2022-08-03T14:45:48;1.07;;;1.07;;
7289;SDS011;3686;52.678;13.252;2022-08-03T14:48:21;5.07;;;1.20;;
7289;SDS011;3686;52.678;13.252;2022-08-03T14:50:47;1.50;;;1.40;;
7289;SDS011;3686;52.678;13.252;2022-08-03T14:53:13;1.13;;;1.00;;
7289;SDS011;3686;52.678;13.252;2022-08-03T14:55:41;2.40;;;1.00;;
7289;SDS011;3686;52.678;13.252;2022-08-03T14:58:07;1.13;;;1.10;;
7289;SDS011;3686;52.678;13.252;2022-08-03T15:00:33;1.47;;;1.37;;
7289;SDS011;3686;52.678;13.252;2022-08-03T15:02:59;3.83;;;1.17;;
7289;SDS011;3686;52.678;13.252;2022-08-03T15:05:25;1.30;;;1.20;;
7289;SDS011;3686;52.678;13.252;2022-08-03T15:07:51;1.57;;;1.10;;
7289;SDS011;3686;52.678;13.252;2022-08-03T15:10:16;1.30;;;1.30;;
7289;SDS011;3686;52.678;13.252;2022-08-03T15:12:42;1.70;;;1.30;;
7289;SDS011;3686;52.678;13.252;2022-08-03T15:15:08;1.90;;;0.93;;
7289;SDS011;3686;52.678;13.252;2022-08-03T15:17:34;1.20;;;1.20;;
7289;SDS011;3686;52.678;13.252;2022-08-03T15:20:00;1.63;;;1.07;;
7289;SDS011;3686;52.678;13.252;2022-08-03T15:22:25;1.33;;;1.27;;
7289;SDS011;3686;52.678;13.252;2022-08-03T15:24:51;1.67;;;1.57;;
7289;SDS011;3686;52.678;13.252;2022-08-03T15:27:17;1.13;;;1.10;;
7289;SDS011;3686;52.678;13.252;2022-08-03T15:29:43;2.23;;;1.27;;
7289;SDS011;3686;52.678;13.252;2022-08-03T15:32:09;1.87;;;1.30;;
7289;SDS011;3686;52.678;13.252;2022-08-03T15:34:34;1.40;;;1.30;;
7289;SDS011;3686;52.678;13.252;2022-08-03T15:37:00;1.20;;;1.20;;
7289;SDS011;3686;52.678;13.252;2022-08-03T15:39:25;1.90;;;1.47;;
7289;SDS011;3686;52.678;13.252;2022-08-03T15:41:51;1.30;;;1.10;;
7289;SDS011;3686;52.678;13.252;2022-08-03T15:44:17;1.40;;;1.30;;
7289;SDS011;3686;52.678;13.252;2022-08-03T15:46:43;1.43;;;1.33;;
7289;SDS011;3686;52.678;13.252;2022-08-03T15:49:09;1.57;;;1.40;;
7289;SDS011;3686;52.678;13.252;2022-08-03T15:51:35;1.23;;;1.23;;
7289;SDS011;3686;52.678;13.252;2022-08-03T15:54:02;1.40;;;1.27;;